createdAt,value
2019-05-29T00:02:01.451Z,79.81
2019-05-29T00:04:27.242Z,79.67
2019-05-29T00:06:53.044Z,79.99
2019-05-29T00:09:18.833Z,80.11
2019-05-29T00:11:44.633Z,80.22
2019-05-29T00:14:25.023Z,80.29
2019-05-29T00:16:38.155Z,80.51
2019-05-29T00:19:03.979Z,80.26
2019-05-29T00:21:29.800Z,80.50
2019-05-29T00:23:55.601Z,80.30
2019-05-29T00:26:21.408Z,80.50
2019-05-29T00:28:47.202Z,81.12
2019-05-29T00:31:13.963Z,80.03
2019-05-29T00:33:39.813Z,79.53
2019-05-29T00:36:06.167Z,79.34
2019-05-29T00:38:32.030Z,79.45
2019-05-29T00:40:57.818Z,79.81
2019-05-29T00:43:23.617Z,79.16
2019-05-29T00:45:49.412Z,79.20
2019-05-29T00:48:16.050Z,79.48
2019-05-29T00:50:41.940Z,79.13
2019-05-29T00:53:08.140Z,79.36
2019-05-29T00:55:33.926Z,79.30
2019-05-29T00:57:59.722Z,79.11
2019-05-29T01:00:25.512Z,79.29
2019-05-29T01:02:51.343Z,79.17
2019-05-29T01:05:18.165Z,79.63
2019-05-29T01:07:44.005Z,79.62
2019-05-29T01:10:10.585Z,79.79
2019-05-29T01:12:36.510Z,80.07
2019-05-29T01:15:03.895Z,80.62
2019-05-29T01:17:29.686Z,80.73
2019-05-29T01:19:55.489Z,80.70
2019-05-29T01:22:22.407Z,80.53
2019-05-29T01:24:48.306Z,80.95
2019-05-29T01:27:15.113Z,80.74
2019-05-29T01:29:41.038Z,80.89
2019-05-29T01:32:06.841Z,80.75
2019-05-29T01:34:32.636Z,80.62
2019-05-29T01:36:58.427Z,81.06
2019-05-29T01:39:24.235Z,81.43
2019-05-29T01:41:50.110Z,80.92
2019-05-29T01:44:15.939Z,81.66
2019-05-29T01:46:41.731Z,81.42
2019-05-29T01:49:07.521Z,81.53
2019-05-29T01:51:33.308Z,81.30
2019-05-29T01:53:59.103Z,81.19
2019-05-29T01:56:24.911Z,81.03
2019-05-29T01:58:50.828Z,81.00
2019-05-29T02:01:17.919Z,81.56
2019-05-29T02:03:43.840Z,82.31
2019-05-29T02:06:09.635Z,82.07
2019-05-29T02:08:35.430Z,81.66
2019-05-29T02:11:01.240Z,81.59
2019-05-29T02:13:27.554Z,82.02
2019-05-29T02:15:53.413Z,81.92
2019-05-29T02:18:19.213Z,81.98
2019-05-29T02:20:45.001Z,81.96
2019-05-29T02:23:10.804Z,82.21
2019-05-29T02:25:36.596Z,81.81
2019-05-29T02:28:02.400Z,82.11
2019-05-29T02:30:30.659Z,82.50
2019-05-29T02:32:55.918Z,82.61
2019-05-29T02:35:22.610Z,82.73
2019-05-29T02:37:49.418Z,82.29
2019-05-29T02:40:15.308Z,82.33
2019-05-29T02:42:41.091Z,81.91
2019-05-29T02:45:07.109Z,83.87
2019-05-29T02:47:32.895Z,83.87
2019-05-29T02:49:58.704Z,84.61
2019-05-29T02:52:26.146Z,84.93
2019-05-29T02:54:52.122Z,85.37
2019-05-29T02:57:17.921Z,85.09
2019-05-29T02:59:43.714Z,84.95
2019-05-29T03:02:09.497Z,85.38
2019-05-29T03:04:35.289Z,84.59
2019-05-29T03:07:01.094Z,84.91
2019-05-29T03:09:28.417Z,85.06
2019-05-29T03:11:54.800Z,84.85
2019-05-29T03:14:20.605Z,84.10
2019-05-29T03:16:46.391Z,84.03
2019-05-29T03:19:12.195Z,83.77
2019-05-29T03:21:37.975Z,83.46
2019-05-29T03:24:03.826Z,83.40
2019-05-29T03:26:31.254Z,83.16
2019-05-29T03:28:57.320Z,83.03
2019-05-29T03:31:23.115Z,83.25
2019-05-29T03:33:50.883Z,83.14
2019-05-29T03:36:16.656Z,83.21
2019-05-29T03:38:42.451Z,83.30
2019-05-29T03:41:08.540Z,83.40
2019-05-29T03:43:36.017Z,83.26
2019-05-29T03:46:02.066Z,83.35
2019-05-29T03:48:27.950Z,83.54
2019-05-29T03:50:53.740Z,83.27
2019-05-29T03:53:19.520Z,83.35
2019-05-29T03:55:45.339Z,83.32
2019-05-29T03:58:11.127Z,83.50
2019-05-29T04:00:45.441Z,83.58
2019-05-29T04:03:04.835Z,83.54
2019-05-29T04:05:30.911Z,83.70
2019-05-29T04:07:56.822Z,83.76
2019-05-29T04:10:31.740Z,83.69
2019-05-29T04:12:57.850Z,83.65
2019-05-29T04:15:23.854Z,85.33
2019-05-29T04:17:50.238Z,85.67
2019-05-29T04:20:16.130Z,84.83
2019-05-29T04:22:43.424Z,85.23
2019-05-29T04:25:09.237Z,85.13
2019-05-29T04:27:36.099Z,84.54
2019-05-29T04:30:02.578Z,84.41
2019-05-29T04:32:29.840Z,83.65
2019-05-29T04:34:55.734Z,83.27
2019-05-29T04:37:21.548Z,83.48
2019-05-29T04:39:47.344Z,82.69
2019-05-29T04:42:13.125Z,82.50
2019-05-29T04:44:40.986Z,82.01
2019-05-29T04:47:10.888Z,82.09
2019-05-29T04:49:35.751Z,81.70
2019-05-29T04:52:02.022Z,81.38
2019-05-29T04:54:29.274Z,81.59
2019-05-29T04:56:55.215Z,80.97
2019-05-29T04:59:21.017Z,80.29
2019-05-29T05:01:46.814Z,79.77
2019-05-29T05:04:12.601Z,79.73
2019-05-29T05:06:39.472Z,78.97
2019-05-29T05:09:06.138Z,78.84
2019-05-29T05:11:31.954Z,78.25
2019-05-29T05:13:57.763Z,77.75
2019-05-29T05:16:23.566Z,77.44
2019-05-29T05:18:49.374Z,77.89
2019-05-29T05:21:15.210Z,77.48
2019-05-29T05:23:40.975Z,76.61
2019-05-29T05:26:06.780Z,75.40
2019-05-29T05:28:32.565Z,75.75
2019-05-29T05:30:58.382Z,75.13
2019-05-29T05:33:24.176Z,74.86
2019-05-29T05:35:49.960Z,75.03
2019-05-29T05:38:15.784Z,75.05
2019-05-29T05:40:43.263Z,75.02
2019-05-29T05:43:23.184Z,75.20
2019-05-29T05:45:37.117Z,73.86
2019-05-29T05:48:03.116Z,74.18
2019-05-29T05:50:28.921Z,73.93
2019-05-29T05:52:54.738Z,74.21
2019-05-29T05:55:20.552Z,74.68
2019-05-29T05:57:46.734Z,73.97
2019-05-29T06:00:17.403Z,72.64
2019-05-29T06:02:43.236Z,72.64
2019-05-29T06:05:09.219Z,71.00
2019-05-29T06:07:42.662Z,69.67
2019-05-29T06:10:10.392Z,70.08
2019-05-29T06:12:38.496Z,70.08
2019-05-29T06:15:05.268Z,68.37
2019-05-29T06:17:34.417Z,66.93
2019-05-29T06:20:06.555Z,67.47
2019-05-29T06:22:32.957Z,65.25
2019-05-29T06:24:58.854Z,65.25
2019-05-29T06:27:24.638Z,65.90
2019-05-29T06:29:50.429Z,65.79
2019-05-29T06:32:16.241Z,64.56
2019-05-29T06:34:42.065Z,61.63
2019-05-29T06:37:07.853Z,62.05
2019-05-29T06:39:33.646Z,61.79
2019-05-29T06:41:59.424Z,62.05
2019-05-29T06:44:25.320Z,63.62
2019-05-29T06:46:51.127Z,62.02
2019-05-29T06:49:16.931Z,61.31
2019-05-29T06:51:43.436Z,60.29
2019-05-29T06:54:09.326Z,60.60
2019-05-29T06:56:35.531Z,59.66
2019-05-29T06:59:01.483Z,58.60
2019-05-29T07:01:27.266Z,57.81
2019-05-29T07:04:10.529Z,57.73
2019-05-29T07:06:20.765Z,57.37
2019-05-29T07:08:49.632Z,58.00
2019-05-29T07:11:14.279Z,58.00
2019-05-29T07:13:43.142Z,56.79
2019-05-29T07:16:07.776Z,58.36
2019-05-29T07:18:33.563Z,58.42
2019-05-29T07:20:59.362Z,56.29
2019-05-29T07:23:25.157Z,55.45
2019-05-29T07:25:50.986Z,55.33
2019-05-29T07:28:16.773Z,54.21
2019-05-29T07:30:47.826Z,53.78
2019-05-29T07:33:10.290Z,53.56
2019-05-29T07:35:37.186Z,51.53
2019-05-29T07:38:03.088Z,48.96
2019-05-29T07:40:28.884Z,51.52
2019-05-29T07:42:56.559Z,51.91
2019-05-29T07:45:22.388Z,52.25
2019-05-29T07:47:48.590Z,53.58
2019-05-29T07:50:15.379Z,52.99
2019-05-29T07:52:43.055Z,52.87
2019-05-29T07:55:09.141Z,51.30
2019-05-29T07:57:34.884Z,53.61
2019-05-29T08:00:00.676Z,52.12
2019-05-29T08:02:26.473Z,52.25
2019-05-29T08:04:52.393Z,51.76
2019-05-29T08:07:18.172Z,51.69
2019-05-29T08:09:43.973Z,50.54
2019-05-29T08:12:09.864Z,49.61
2019-05-29T08:14:35.658Z,48.22
2019-05-29T08:17:01.579Z,49.30
2019-05-29T08:19:27.689Z,49.86
2019-05-29T08:21:53.481Z,50.65
2019-05-29T08:24:19.269Z,50.38
2019-05-29T08:26:45.083Z,49.90
2019-05-29T08:29:10.861Z,49.58
2019-05-29T08:31:36.733Z,48.84
2019-05-29T08:34:02.835Z,49.95
2019-05-29T08:36:28.632Z,50.90
2019-05-29T08:38:54.442Z,50.27
2019-05-29T08:41:20.233Z,48.87
2019-05-29T08:43:46.939Z,49.00
2019-05-29T08:46:12.850Z,47.78
2019-05-29T08:48:38.636Z,48.78
2019-05-29T08:51:04.442Z,48.01
2019-05-29T08:53:30.227Z,48.66
2019-05-29T08:55:56.013Z,49.23
2019-05-29T08:58:21.841Z,50.42
2019-05-29T09:00:51.870Z,48.94
2019-05-29T09:03:15.349Z,46.51
2019-05-29T09:05:42.427Z,47.23
2019-05-29T09:08:08.236Z,50.01
2019-05-29T09:10:34.048Z,51.70
2019-05-29T09:13:04.683Z,52.26
2019-05-29T09:15:27.541Z,54.43
2019-05-29T09:17:53.356Z,53.87
2019-05-29T09:20:32.047Z,54.43
2019-05-29T09:22:46.932Z,55.60
2019-05-29T09:25:14.129Z,54.94
2019-05-29T09:27:40.586Z,55.72
2019-05-29T09:30:06.466Z,56.94
2019-05-29T09:32:49.446Z,56.17
2019-05-29T09:34:59.948Z,57.05
2019-05-29T09:37:25.747Z,56.58
2019-05-29T09:39:51.531Z,55.98
2019-05-29T09:42:18.704Z,56.15
2019-05-29T09:44:45.039Z,55.00
2019-05-29T09:47:11.131Z,51.96
2019-05-29T09:49:37.408Z,52.07
2019-05-29T09:52:04.190Z,50.97
2019-05-29T09:54:30.147Z,51.59
2019-05-29T09:56:57.826Z,50.22
2019-05-29T09:59:24.117Z,48.08
2019-05-29T10:01:50.153Z,49.46
2019-05-29T10:04:16.129Z,45.17
2019-05-29T10:06:42.194Z,45.85
2019-05-29T10:09:07.977Z,47.23
2019-05-29T10:11:33.781Z,48.50
2019-05-29T10:14:00.567Z,50.79
2019-05-29T10:16:26.473Z,51.70
2019-05-29T10:18:52.267Z,51.89
2019-05-29T10:21:18.044Z,50.87
2019-05-29T10:23:43.970Z,51.36
2019-05-29T10:26:09.982Z,52.51
2019-05-29T10:28:50.377Z,51.21
2019-05-29T10:31:04.869Z,48.50
2019-05-29T10:33:30.919Z,46.57
2019-05-29T10:35:56.723Z,44.93
2019-05-29T10:38:22.530Z,41.79
2019-05-29T10:41:00.563Z,42.87
2019-05-29T10:43:30.903Z,42.67
2019-05-29T10:45:43.752Z,43.23
2019-05-29T10:48:09.894Z,45.00
2019-05-29T10:50:35.860Z,43.18
2019-05-29T10:53:01.655Z,43.92
2019-05-29T10:55:27.442Z,43.98
2019-05-29T10:57:53.371Z,46.44
2019-05-29T11:00:19.876Z,45.83
2019-05-29T11:02:46.579Z,46.39
2019-05-29T11:05:14.166Z,44.20
2019-05-29T11:07:39.960Z,42.70
2019-05-29T11:10:07.383Z,41.69
2019-05-29T11:12:33.144Z,40.90
2019-05-29T11:14:59.052Z,38.71
2019-05-29T11:17:24.923Z,38.61
2019-05-29T11:19:51.189Z,37.16
2019-05-29T11:22:26.269Z,37.42
2019-05-29T11:24:44.676Z,38.84
2019-05-29T11:27:10.520Z,39.04
2019-05-29T11:29:36.296Z,40.81
2019-05-29T11:32:02.112Z,44.12
2019-05-29T11:34:27.908Z,43.59
2019-05-29T11:36:54.268Z,44.36
2019-05-29T11:39:20.079Z,43.26
2019-05-29T11:41:45.927Z,44.56
2019-05-29T11:44:11.753Z,43.82
2019-05-29T11:46:37.574Z,40.23
2019-05-29T11:49:03.692Z,34.18
2019-05-29T11:51:29.577Z,34.18
2019-05-29T11:53:55.496Z,35.83
2019-05-29T11:56:21.282Z,37.95
2019-05-29T11:58:47.080Z,35.27
2019-05-29T12:01:12.862Z,33.07
2019-05-29T12:04:04.014Z,33.74
2019-05-29T12:06:06.658Z,32.52
2019-05-29T12:08:32.566Z,31.51
2019-05-29T12:10:59.471Z,32.57
2019-05-29T12:13:25.269Z,32.48
2019-05-29T12:15:51.520Z,34.88
2019-05-29T12:18:24.289Z,36.97
2019-05-29T12:20:45.140Z,36.85
2019-05-29T12:23:25.112Z,38.41
2019-05-29T12:25:38.663Z,38.45
2019-05-29T12:28:04.468Z,39.13
2019-05-29T12:30:30.544Z,39.08
2019-05-29T12:32:56.859Z,36.96
2019-05-29T12:35:22.668Z,35.56
2019-05-29T12:37:48.484Z,34.72
2019-05-29T12:40:14.470Z,36.14
2019-05-29T12:42:44.555Z,35.21
2019-05-29T12:45:08.175Z,35.13
2019-05-29T12:47:33.999Z,35.86
2019-05-29T12:50:00.546Z,36.36
2019-05-29T12:52:27.513Z,34.45
2019-05-29T12:54:53.865Z,34.72
2019-05-29T12:57:23.431Z,32.06
2019-05-29T12:59:47.477Z,34.04
2019-05-29T13:02:13.273Z,35.76
2019-05-29T13:05:05.947Z,34.85
2019-05-29T13:07:06.905Z,34.99
2019-05-29T13:09:32.665Z,35.51
2019-05-29T13:11:58.566Z,34.72
2019-05-29T13:14:24.361Z,35.08
2019-05-29T13:16:50.153Z,35.53
2019-05-29T13:19:15.943Z,33.95
2019-05-29T13:21:41.725Z,34.10
2019-05-29T13:24:11.431Z,35.85
2019-05-29T13:26:35.213Z,37.12
2019-05-29T13:29:01.695Z,37.69
2019-05-29T13:31:27.493Z,37.92
2019-05-29T13:33:53.297Z,38.54
2019-05-29T13:36:19.175Z,36.04
2019-05-29T13:38:44.972Z,36.39
2019-05-29T13:41:10.758Z,38.18
2019-05-29T13:43:36.552Z,37.38
2019-05-29T13:46:02.618Z,37.96
2019-05-29T13:48:28.461Z,37.71
2019-05-29T13:50:54.246Z,37.60
2019-05-29T13:53:20.051Z,36.85
2019-05-29T13:55:45.844Z,36.24
2019-05-29T13:58:11.638Z,36.08
2019-05-29T14:00:37.544Z,37.48
2019-05-29T14:03:04.867Z,35.83
2019-05-29T14:05:30.855Z,35.87
2019-05-29T14:07:56.649Z,36.32
2019-05-29T14:10:22.679Z,37.53
2019-05-29T14:12:48.474Z,37.18
2019-05-29T14:15:14.601Z,37.01
2019-05-29T14:17:40.382Z,36.13
2019-05-29T14:20:06.741Z,36.36
2019-05-29T14:22:33.294Z,35.78
2019-05-29T14:24:59.103Z,34.09
2019-05-29T14:27:24.918Z,32.53
2019-05-29T14:29:50.701Z,33.33
2019-05-29T14:32:16.786Z,34.19
2019-05-29T14:34:42.576Z,34.10
2019-05-29T14:37:09.718Z,34.17
2019-05-29T14:39:35.663Z,35.26
2019-05-29T14:42:01.757Z,33.95
2019-05-29T14:44:27.711Z,33.96
2019-05-29T14:46:53.552Z,34.33
2019-05-29T14:49:19.348Z,33.80
2019-05-29T14:51:45.158Z,34.33
2019-05-29T14:54:11.158Z,36.26
2019-05-29T14:56:37.007Z,36.67
2019-05-29T14:59:03.292Z,37.04
2019-05-29T15:01:29.495Z,38.37
2019-05-29T15:03:55.321Z,39.65
2019-05-29T15:06:21.111Z,37.77
2019-05-29T15:08:46.912Z,36.68
2019-05-29T15:11:14.041Z,37.42
2019-05-29T15:13:39.976Z,37.63
2019-05-29T15:16:06.590Z,37.67
2019-05-29T15:18:32.494Z,36.71
2019-05-29T15:20:58.301Z,37.41
2019-05-29T15:23:24.088Z,37.61
2019-05-29T15:25:49.898Z,38.62
2019-05-29T15:28:16.398Z,36.74
2019-05-29T15:30:43.389Z,36.71
2019-05-29T15:33:10.774Z,37.01
2019-05-29T15:35:36.680Z,38.10
2019-05-29T15:38:02.470Z,36.32
2019-05-29T15:40:28.281Z,37.87
2019-05-29T15:42:54.074Z,38.03
2019-05-29T15:45:19.999Z,37.52
2019-05-29T15:47:45.776Z,37.75
2019-05-29T15:50:13.392Z,38.61
2019-05-29T15:52:39.493Z,37.66
2019-05-29T15:55:23.189Z,40.03
2019-05-29T15:57:33.791Z,40.59
2019-05-29T15:59:59.581Z,36.42
2019-05-29T16:02:25.373Z,36.42
2019-05-29T16:04:51.169Z,36.33
2019-05-29T16:07:18.139Z,37.17
2019-05-29T16:09:44.076Z,36.61
2019-05-29T16:12:10.539Z,36.35
2019-05-29T16:14:36.364Z,36.40
2019-05-29T16:17:02.181Z,36.96
2019-05-29T16:19:27.962Z,37.10
2019-05-29T16:21:53.761Z,36.62
2019-05-29T16:24:19.560Z,37.38
2019-05-29T16:26:45.366Z,36.96
2019-05-29T16:29:12.300Z,37.70
2019-05-29T16:31:38.299Z,37.18
2019-05-29T16:34:04.209Z,37.95
2019-05-29T16:36:30.022Z,37.73
2019-05-29T16:38:55.812Z,37.74
2019-05-29T16:41:22.031Z,37.73
2019-05-29T16:43:47.839Z,37.57
2019-05-29T16:46:17.132Z,37.64
2019-05-29T16:48:41.378Z,36.87
2019-05-29T16:51:07.208Z,37.86
2019-05-29T16:53:33.003Z,38.45
2019-05-29T16:55:58.799Z,37.93
2019-05-29T16:58:24.842Z,37.78
2019-05-29T17:00:50.657Z,38.17
2019-05-29T17:03:17.605Z,38.00
2019-05-29T17:05:43.528Z,38.83
2019-05-29T17:08:09.336Z,37.96
2019-05-29T17:10:36.026Z,37.43
2019-05-29T17:13:02.639Z,37.71
2019-05-29T17:15:28.406Z,37.66
2019-05-29T17:17:54.231Z,37.34
2019-05-29T17:20:38.004Z,37.48
2019-05-29T17:23:03.832Z,36.86
2019-05-29T17:25:29.628Z,36.02
2019-05-29T17:27:55.448Z,35.90
2019-05-29T17:30:25.173Z,37.10
2019-05-29T17:32:50.952Z,35.27
2019-05-29T17:35:17.315Z,35.83
2019-05-29T17:37:43.140Z,34.76
2019-05-29T17:40:09.023Z,35.03
2019-05-29T17:42:34.823Z,34.91
2019-05-29T17:45:00.611Z,35.74
2019-05-29T17:47:26.422Z,35.99
2019-05-29T17:49:52.228Z,35.91
2019-05-29T17:52:18.035Z,35.91
2019-05-29T17:54:43.825Z,36.43
2019-05-29T17:57:09.673Z,36.63
2019-05-29T17:59:35.468Z,36.07
2019-05-29T18:02:01.642Z,36.29
2019-05-29T18:04:27.445Z,35.00
2019-05-29T18:06:56.446Z,35.07
2019-05-29T18:09:24.691Z,34.73
2019-05-29T18:11:48.722Z,34.07
2019-05-29T18:14:14.533Z,34.08
2019-05-29T18:16:40.317Z,36.25
2019-05-29T18:19:06.123Z,34.70
2019-05-29T18:21:31.934Z,34.52
2019-05-29T18:23:58.199Z,37.12
2019-05-29T18:26:24.690Z,36.75
2019-05-29T18:28:50.690Z,37.09
2019-05-29T18:31:16.582Z,38.29
2019-05-29T18:33:42.399Z,37.35
2019-05-29T18:36:08.738Z,38.49
2019-05-29T18:38:37.488Z,38.03
2019-05-29T18:41:03.782Z,38.81
2019-05-29T18:43:29.648Z,39.96
2019-05-29T18:45:56.114Z,40.32
2019-05-29T18:48:23.173Z,40.24
2019-05-29T18:50:49.083Z,40.89
2019-05-29T18:53:15.526Z,42.08
2019-05-29T18:55:41.332Z,42.26
2019-05-29T18:58:07.174Z,41.45
2019-05-29T19:00:32.970Z,42.30
2019-05-29T19:02:59.536Z,41.88
2019-05-29T19:05:25.909Z,42.07
2019-05-29T19:07:51.964Z,42.96
2019-05-29T19:10:18.396Z,43.34
2019-05-29T19:12:44.329Z,43.44
2019-05-29T19:15:10.749Z,44.64
2019-05-29T19:17:36.804Z,45.42
2019-05-29T19:20:05.596Z,45.86
2019-05-29T19:22:32.405Z,47.12
2019-05-29T19:25:01.883Z,46.57
2019-05-29T19:27:37.437Z,47.02
2019-05-29T19:29:56.568Z,47.35
2019-05-29T19:32:23.329Z,48.13
2019-05-29T19:34:49.916Z,48.25
2019-05-29T19:37:18.785Z,48.88
2019-05-29T19:39:44.852Z,49.05
2019-05-29T19:42:10.849Z,49.23
2019-05-29T19:44:37.243Z,49.83
2019-05-29T19:47:03.793Z,50.38
2019-05-29T19:49:30.878Z,50.89
2019-05-29T19:51:57.048Z,50.52
2019-05-29T19:54:23.013Z,51.59
2019-05-29T19:56:49.301Z,51.75
2019-05-29T19:59:15.597Z,52.57
2019-05-29T20:01:41.820Z,54.03
2019-05-29T20:04:07.992Z,54.55
2019-05-29T20:06:35.338Z,54.65
2019-05-29T20:09:01.524Z,54.81
2019-05-29T20:11:27.846Z,54.78
2019-05-29T20:13:53.968Z,55.31
2019-05-29T20:16:19.770Z,55.76
2019-05-29T20:18:45.716Z,56.19
2019-05-29T20:21:11.624Z,56.45
2019-05-29T20:23:37.401Z,56.55
2019-05-29T20:26:03.239Z,56.89
2019-05-29T20:28:30.048Z,56.85
2019-05-29T20:30:55.945Z,57.27
2019-05-29T20:33:21.767Z,57.81
2019-05-29T20:35:47.565Z,57.81
2019-05-29T20:38:13.340Z,58.24
2019-05-29T20:40:39.504Z,58.98
2019-05-29T20:43:05.356Z,59.81
2019-05-29T20:45:31.443Z,59.48
2019-05-29T20:47:57.288Z,60.00
2019-05-29T20:50:23.078Z,60.65
2019-05-29T20:52:48.884Z,60.82
2019-05-29T20:55:14.869Z,61.03
2019-05-29T20:57:42.042Z,61.54
2019-05-29T21:00:08.657Z,61.34
2019-05-29T21:02:34.460Z,61.69
2019-05-29T21:05:00.277Z,61.47
2019-05-29T21:07:26.102Z,61.45
2019-05-29T21:09:51.909Z,62.27
2019-05-29T21:12:17.717Z,62.28
2019-05-29T21:14:44.737Z,61.90
2019-05-29T21:17:10.943Z,62.25
2019-05-29T21:19:36.823Z,62.48
2019-05-29T21:22:02.929Z,62.39
2019-05-29T21:24:28.738Z,62.76
2019-05-29T21:26:54.561Z,62.55
2019-05-29T21:29:20.341Z,62.61
2019-05-29T21:31:46.167Z,62.91
2019-05-29T21:34:11.952Z,63.07
2019-05-29T21:36:38.034Z,63.04
2019-05-29T21:39:05.708Z,63.09
2019-05-29T21:41:31.500Z,63.26
2019-05-29T21:43:57.297Z,63.37
2019-05-29T21:46:23.090Z,63.44
2019-05-29T21:48:48.880Z,63.38
2019-05-29T21:51:14.690Z,63.45
2019-05-29T21:53:41.322Z,63.44
2019-05-29T21:56:07.186Z,63.31
2019-05-29T21:58:32.985Z,63.19
2019-05-29T22:00:59.101Z,63.21
2019-05-29T22:03:24.919Z,63.43
2019-05-29T22:05:50.740Z,63.48
2019-05-29T22:08:16.502Z,63.21
2019-05-29T22:10:42.690Z,63.19
2019-05-29T22:13:08.495Z,62.92
2019-05-29T22:15:34.397Z,62.61
2019-05-29T22:18:01.241Z,62.48
2019-05-29T22:20:27.192Z,62.47
2019-05-29T22:22:53.132Z,62.47
2019-05-29T22:25:18.987Z,61.82
2019-05-29T22:27:44.768Z,62.23
2019-05-29T22:30:10.891Z,62.38
2019-05-29T22:32:36.692Z,62.05
2019-05-29T22:35:06.402Z,62.26
2019-05-29T22:37:32.221Z,62.02
2019-05-29T22:39:58.018Z,62.02
2019-05-29T22:42:23.803Z,62.00
2019-05-29T22:44:49.718Z,62.08
2019-05-29T22:47:15.522Z,62.11
2019-05-29T22:49:41.337Z,62.08
2019-05-29T22:52:07.116Z,61.70
2019-05-29T22:54:32.941Z,61.55
2019-05-29T22:56:59.954Z,61.43
2019-05-29T22:59:31.889Z,60.78
2019-05-29T23:01:54.096Z,60.07
2019-05-29T23:04:19.992Z,60.07
2019-05-29T23:06:45.796Z,60.15
2019-05-29T23:09:11.605Z,59.90
2019-05-29T23:11:37.403Z,59.44
2019-05-29T23:14:03.196Z,60.04
2019-05-29T23:16:29.005Z,59.48
2019-05-29T23:18:54.786Z,59.89
2019-05-29T23:21:20.608Z,59.79
2019-05-29T23:23:46.508Z,59.92
2019-05-29T23:26:12.326Z,59.68
2019-05-29T23:28:38.217Z,59.43
2019-05-29T23:31:04.109Z,59.58
2019-05-29T23:33:29.930Z,59.43
2019-05-29T23:35:56.906Z,59.78
2019-05-29T23:38:22.713Z,59.60
2019-05-29T23:40:48.512Z,59.68
2019-05-29T23:43:14.314Z,59.66
2019-05-29T23:45:40.101Z,58.92
2019-05-29T23:48:05.930Z,58.80
2019-05-29T23:50:31.737Z,59.20
2019-05-29T23:52:57.933Z,59.20
2019-05-29T23:55:23.861Z,58.34
2019-05-29T23:57:49.666Z,58.20
